Nearby METAR Reports

 

EGKB - Biggin Hill, United Kingdom
Distance from station: S 5mi, 8km
Updated: 26/10/2014 09:20
Mostly cloudy
Mostly cloudy
 Wind from SSW
Wind: SSW 12 mph , 19 km/h
Temperature: 13°C
Dew Point: 8°C
Humidity: 72%
Barometer: 1022 hPa
Clouds: Mostly cloudy
Visibility: 6 miles , 10 km
Cloud details: Mostly cloudy 762 m
2014/10/26 09:20 EGKB 260920Z 21010KT 9999 BKN025 13/08 Q1022
EGLC - London City Airp, United Kingdom
Distance from station: NNE 8mi, 13km
Updated: 26/10/2014 09:20
Overcast
Overcast
 Wind from SSW
Wind: SSW 12 mph , 19 km/h
Temperature: 14°C
Dew Point: 9°C
Humidity: 72%
Barometer: 1022 hPa
Clouds: Overcast
Visibility: 6 miles , 10 km
Cloud details: Overcast 914 m
2014/10/26 09:20 EGLC 260920Z AUTO 21010KT 180V240 9999 OVC030/// 14/09 Q1022
 
EGKK - London/Gatwick A, United Kingdom
Distance from station: SSW 19mi, 31km
Updated: 26/10/2014 09:20
Mostly cloudy
Mostly cloudy
 Wind from SSW
Wind: SSW 6 mph , 9 km/h
Temperature: 13°C
Dew Point: 9°C
Humidity: 77%
Barometer: 1022 hPa
Clouds: Mostly cloudy
Visibility: 6 miles , 10 km
Cloud details: Mostly cloudy 732 m
Mostly cloudy 884 m
2014/10/26 09:20 EGKK 260920Z 21005KT 180V240 9999 BKN024 BKN029 13/09 Q1022
EGLL - London/Heathrow, United Kingdom
Distance from station: WNW 21mi, 33km
Updated: 26/10/2014 09:20
Mostly cloudy
Mostly cloudy
 Wind from SSW
Wind: SSW 8 mph , 13 km/h
Temperature: 14°C
Dew Point: 9°C
Humidity: 72%
Barometer: 1022 hPa
Clouds: Mostly cloudy
Visibility: 6 miles , 10 km
Cloud details: Mostly cloudy 975 m
2014/10/26 09:20 EGLL 260920Z 21007KT 9999 BKN032 14/09 Q1022